sensor_id;sensor_type;location;lat;lon;timestamp;P1;durP1;ratioP1;P2;durP2;ratioP2
74995;SDS011;63545;51.690;5.202;2024-02-28T00:02:06;24.23;;;11.45;;
74995;SDS011;63545;51.690;5.202;2024-02-28T00:04:32;20.03;;;10.30;;
74995;SDS011;63545;51.690;5.202;2024-02-28T00:06:57;20.50;;;11.97;;
74995;SDS011;63545;51.690;5.202;2024-02-28T00:09:23;22.30;;;11.80;;
74995;SDS011;63545;51.690;5.202;2024-02-28T00:11:48;21.47;;;11.00;;
74995;SDS011;63545;51.690;5.202;2024-02-28T00:14:15;19.80;;;11.33;;
74995;SDS011;63545;51.690;5.202;2024-02-28T00:16:41;19.30;;;10.50;;
74995;SDS011;63545;51.690;5.202;2024-02-28T00:19:09;18.80;;;11.35;;
74995;SDS011;63545;51.690;5.202;2024-02-28T00:21:36;20.23;;;10.77;;
74995;SDS011;63545;51.690;5.202;2024-02-28T00:24:01;20.33;;;10.57;;
74995;SDS011;63545;51.690;5.202;2024-02-28T00:26:27;17.33;;;10.33;;
74995;SDS011;63545;51.690;5.202;2024-02-28T00:28:52;20.47;;;11.40;;
74995;SDS011;63545;51.690;5.202;2024-02-28T00:31:18;17.38;;;10.68;;
74995;SDS011;63545;51.690;5.202;2024-02-28T00:33:44;20.23;;;11.10;;
74995;SDS011;63545;51.690;5.202;2024-02-28T00:36:09;20.70;;;11.83;;
74995;SDS011;63545;51.690;5.202;2024-02-28T00:38:34;20.70;;;11.70;;
74995;SDS011;63545;51.690;5.202;2024-02-28T00:41:00;22.40;;;11.40;;
74995;SDS011;63545;51.690;5.202;2024-02-28T00:43:25;21.20;;;11.23;;
74995;SDS011;63545;51.690;5.202;2024-02-28T00:45:50;21.00;;;12.17;;
74995;SDS011;63545;51.690;5.202;2024-02-28T00:48:15;21.83;;;11.93;;
74995;SDS011;63545;51.690;5.202;2024-02-28T00:50:41;25.00;;;13.10;;
74995;SDS011;63545;51.690;5.202;2024-02-28T00:53:06;26.87;;;12.90;;
74995;SDS011;63545;51.690;5.202;2024-02-28T00:55:31;26.70;;;13.97;;
74995;SDS011;63545;51.690;5.202;2024-02-28T00:57:57;25.37;;;14.13;;
74995;SDS011;63545;51.690;5.202;2024-02-28T01:00:22;24.40;;;14.20;;
74995;SDS011;63545;51.690;5.202;2024-02-28T01:02:47;28.57;;;13.87;;
74995;SDS011;63545;51.690;5.202;2024-02-28T01:05:13;22.50;;;13.33;;
74995;SDS011;63545;51.690;5.202;2024-02-28T01:07:38;25.98;;;13.73;;
74995;SDS011;63545;51.690;5.202;2024-02-28T01:10:04;26.13;;;14.37;;
74995;SDS011;63545;51.690;5.202;2024-02-28T01:12:29;25.77;;;14.17;;
74995;SDS011;63545;51.690;5.202;2024-02-28T01:14:55;24.73;;;13.83;;
74995;SDS011;63545;51.690;5.202;2024-02-28T01:17:20;24.45;;;13.30;;
74995;SDS011;63545;51.690;5.202;2024-02-28T01:19:46;23.15;;;12.45;;
74995;SDS011;63545;51.690;5.202;2024-02-28T01:22:12;22.70;;;12.80;;
74995;SDS011;63545;51.690;5.202;2024-02-28T01:24:37;20.52;;;11.82;;
74995;SDS011;63545;51.690;5.202;2024-02-28T01:27:02;20.67;;;11.77;;
74995;SDS011;63545;51.690;5.202;2024-02-28T01:29:28;20.27;;;12.47;;
74995;SDS011;63545;51.690;5.202;2024-02-28T01:31:54;23.98;;;12.20;;
74995;SDS011;63545;51.690;5.202;2024-02-28T01:34:20;18.33;;;11.57;;
74995;SDS011;63545;51.690;5.202;2024-02-28T01:36:45;23.57;;;11.13;;
74995;SDS011;63545;51.690;5.202;2024-02-28T01:39:11;20.13;;;11.67;;
74995;SDS011;63545;51.690;5.202;2024-02-28T01:41:36;21.13;;;12.40;;
74995;SDS011;63545;51.690;5.202;2024-02-28T01:44:01;23.67;;;12.30;;
74995;SDS011;63545;51.690;5.202;2024-02-28T01:46:27;25.75;;;12.77;;
74995;SDS011;63545;51.690;5.202;2024-02-28T01:48:53;26.23;;;13.55;;
74995;SDS011;63545;51.690;5.202;2024-02-28T01:51:19;22.20;;;12.20;;
74995;SDS011;63545;51.690;5.202;2024-02-28T01:53:50;24.50;;;14.30;;
74995;SDS011;63545;51.690;5.202;2024-02-28T01:56:16;22.43;;;12.83;;
74995;SDS011;63545;51.690;5.202;2024-02-28T01:58:42;28.88;;;13.38;;
74995;SDS011;63545;51.690;5.202;2024-02-28T02:01:09;23.70;;;13.48;;
74995;SDS011;63545;51.690;5.202;2024-02-28T02:03:36;25.98;;;14.40;;
74995;SDS011;63545;51.690;5.202;2024-02-28T02:06:02;23.20;;;13.97;;
74995;SDS011;63545;51.690;5.202;2024-02-28T02:08:28;27.95;;;14.57;;
74995;SDS011;63545;51.690;5.202;2024-02-28T02:10:54;26.90;;;13.82;;
74995;SDS011;63545;51.690;5.202;2024-02-28T02:13:19;26.07;;;14.20;;
74995;SDS011;63545;51.690;5.202;2024-02-28T02:15:45;24.77;;;14.23;;
74995;SDS011;63545;51.690;5.202;2024-02-28T02:18:10;24.13;;;12.57;;
74995;SDS011;63545;51.690;5.202;2024-02-28T02:20:36;22.37;;;12.50;;
74995;SDS011;63545;51.690;5.202;2024-02-28T02:23:03;20.52;;;11.77;;
74995;SDS011;63545;51.690;5.202;2024-02-28T02:25:29;16.77;;;9.67;;
74995;SDS011;63545;51.690;5.202;2024-02-28T02:27:54;17.05;;;10.10;;
74995;SDS011;63545;51.690;5.202;2024-02-28T02:30:20;19.17;;;11.37;;
74995;SDS011;63545;51.690;5.202;2024-02-28T02:32:45;19.60;;;12.17;;
74995;SDS011;63545;51.690;5.202;2024-02-28T02:35:10;22.40;;;13.20;;
74995;SDS011;63545;51.690;5.202;2024-02-28T02:37:36;21.57;;;11.67;;
74995;SDS011;63545;51.690;5.202;2024-02-28T02:40:01;20.43;;;11.83;;
74995;SDS011;63545;51.690;5.202;2024-02-28T02:42:26;22.85;;;12.05;;
74995;SDS011;63545;51.690;5.202;2024-02-28T02:44:52;21.10;;;12.23;;
74995;SDS011;63545;51.690;5.202;2024-02-28T02:47:17;21.43;;;12.50;;
74995;SDS011;63545;51.690;5.202;2024-02-28T02:49:42;22.23;;;12.77;;
74995;SDS011;63545;51.690;5.202;2024-02-28T02:52:08;22.73;;;14.07;;
74995;SDS011;63545;51.690;5.202;2024-02-28T02:54:33;23.93;;;12.90;;
74995;SDS011;63545;51.690;5.202;2024-02-28T02:56:58;20.33;;;12.73;;
74995;SDS011;63545;51.690;5.202;2024-02-28T02:59:24;22.48;;;12.57;;
74995;SDS011;63545;51.690;5.202;2024-02-28T03:01:50;21.03;;;13.00;;
74995;SDS011;63545;51.690;5.202;2024-02-28T03:04:15;27.08;;;13.25;;
74995;SDS011;63545;51.690;5.202;2024-02-28T03:06:41;23.58;;;12.93;;
74995;SDS011;63545;51.690;5.202;2024-02-28T03:09:06;23.57;;;12.77;;
74995;SDS011;63545;51.690;5.202;2024-02-28T03:11:32;24.70;;;13.52;;
74995;SDS011;63545;51.690;5.202;2024-02-28T03:14:00;22.13;;;12.93;;
74995;SDS011;63545;51.690;5.202;2024-02-28T03:16:25;27.45;;;14.00;;
74995;SDS011;63545;51.690;5.202;2024-02-28T03:18:50;20.60;;;12.80;;
74995;SDS011;63545;51.690;5.202;2024-02-28T03:21:16;24.57;;;14.30;;
74995;SDS011;63545;51.690;5.202;2024-02-28T03:23:42;20.05;;;12.82;;
74995;SDS011;63545;51.690;5.202;2024-02-28T03:26:07;22.77;;;13.40;;
74995;SDS011;63545;51.690;5.202;2024-02-28T03:28:32;23.40;;;12.93;;
74995;SDS011;63545;51.690;5.202;2024-02-28T03:30:58;21.03;;;12.53;;
74995;SDS011;63545;51.690;5.202;2024-02-28T03:33:23;21.17;;;13.50;;
74995;SDS011;63545;51.690;5.202;2024-02-28T03:35:50;24.42;;;13.82;;
74995;SDS011;63545;51.690;5.202;2024-02-28T03:38:15;25.97;;;14.13;;
74995;SDS011;63545;51.690;5.202;2024-02-28T03:40:40;22.60;;;12.97;;
74995;SDS011;63545;51.690;5.202;2024-02-28T03:43:06;27.47;;;14.40;;
74995;SDS011;63545;51.690;5.202;2024-02-28T03:45:36;27.03;;;14.80;;
74995;SDS011;63545;51.690;5.202;2024-02-28T03:48:02;25.15;;;14.75;;
74995;SDS011;63545;51.690;5.202;2024-02-28T03:50:27;26.75;;;14.85;;
74995;SDS011;63545;51.690;5.202;2024-02-28T03:52:53;29.63;;;16.03;;
74995;SDS011;63545;51.690;5.202;2024-02-28T03:55:18;29.13;;;15.60;;
74995;SDS011;63545;51.690;5.202;2024-02-28T03:57:46;27.40;;;16.10;;
74995;SDS011;63545;51.690;5.202;2024-02-28T04:00:12;27.40;;;15.52;;
74995;SDS011;63545;51.690;5.202;2024-02-28T04:02:38;27.65;;;16.13;;
74995;SDS011;63545;51.690;5.202;2024-02-28T04:05:03;26.23;;;16.02;;
74995;SDS011;63545;51.690;5.202;2024-02-28T04:07:29;31.87;;;16.20;;
74995;SDS011;63545;51.690;5.202;2024-02-28T04:09:54;27.57;;;17.30;;
74995;SDS011;63545;51.690;5.202;2024-02-28T04:12:19;26.57;;;16.23;;
74995;SDS011;63545;51.690;5.202;2024-02-28T04:14:45;30.48;;;17.15;;
74995;SDS011;63545;51.690;5.202;2024-02-28T04:17:10;29.35;;;16.63;;
74995;SDS011;63545;51.690;5.202;2024-02-28T04:19:35;30.33;;;16.90;;
74995;SDS011;63545;51.690;5.202;2024-02-28T04:22:02;29.88;;;16.65;;
74995;SDS011;63545;51.690;5.202;2024-02-28T04:24:27;30.30;;;17.27;;
74995;SDS011;63545;51.690;5.202;2024-02-28T04:26:53;30.07;;;16.10;;
74995;SDS011;63545;51.690;5.202;2024-02-28T04:29:18;28.63;;;16.43;;
74995;SDS011;63545;51.690;5.202;2024-02-28T04:31:44;31.93;;;17.27;;
74995;SDS011;63545;51.690;5.202;2024-02-28T04:34:09;28.75;;;17.15;;
74995;SDS011;63545;51.690;5.202;2024-02-28T04:36:34;30.37;;;17.33;;
74995;SDS011;63545;51.690;5.202;2024-02-28T04:39:00;28.87;;;17.47;;
74995;SDS011;63545;51.690;5.202;2024-02-28T04:41:26;28.25;;;16.50;;
74995;SDS011;63545;51.690;5.202;2024-02-28T04:43:53;25.80;;;16.43;;
74995;SDS011;63545;51.690;5.202;2024-02-28T04:46:18;27.98;;;17.02;;
74995;SDS011;63545;51.690;5.202;2024-02-28T04:48:43;25.52;;;16.10;;
74995;SDS011;63545;51.690;5.202;2024-02-28T04:51:08;28.00;;;16.47;;
74995;SDS011;63545;51.690;5.202;2024-02-28T04:53:34;28.63;;;16.17;;
74995;SDS011;63545;51.690;5.202;2024-02-28T04:55:59;28.20;;;16.27;;
74995;SDS011;63545;51.690;5.202;2024-02-28T04:58:25;26.60;;;16.70;;
74995;SDS011;63545;51.690;5.202;2024-02-28T05:00:50;30.17;;;16.77;;
74995;SDS011;63545;51.690;5.202;2024-02-28T05:03:16;30.70;;;17.50;;
74995;SDS011;63545;51.690;5.202;2024-02-28T05:05:42;28.70;;;16.70;;
74995;SDS011;63545;51.690;5.202;2024-02-28T05:08:07;28.17;;;16.90;;
74995;SDS011;63545;51.690;5.202;2024-02-28T05:10:32;28.55;;;16.80;;
74995;SDS011;63545;51.690;5.202;2024-02-28T05:12:59;28.85;;;17.92;;
74995;SDS011;63545;51.690;5.202;2024-02-28T05:15:24;31.23;;;17.25;;
74995;SDS011;63545;51.690;5.202;2024-02-28T05:17:50;31.17;;;17.60;;
74995;SDS011;63545;51.690;5.202;2024-02-28T05:20:17;30.73;;;17.83;;
74995;SDS011;63545;51.690;5.202;2024-02-28T05:22:42;29.17;;;17.63;;
74995;SDS011;63545;51.690;5.202;2024-02-28T05:25:07;34.57;;;19.97;;
74995;SDS011;63545;51.690;5.202;2024-02-28T05:27:33;35.50;;;20.30;;
74995;SDS011;63545;51.690;5.202;2024-02-28T05:29:58;35.08;;;19.20;;
74995;SDS011;63545;51.690;5.202;2024-02-28T05:32:26;32.33;;;18.80;;
74995;SDS011;63545;51.690;5.202;2024-02-28T05:34:51;31.40;;;18.63;;
74995;SDS011;63545;51.690;5.202;2024-02-28T05:37:16;33.53;;;18.98;;
74995;SDS011;63545;51.690;5.202;2024-02-28T05:39:43;30.55;;;18.98;;
74995;SDS011;63545;51.690;5.202;2024-02-28T05:42:08;32.90;;;18.83;;
74995;SDS011;63545;51.690;5.202;2024-02-28T05:44:34;31.88;;;19.08;;
74995;SDS011;63545;51.690;5.202;2024-02-28T05:46:59;34.87;;;18.73;;
74995;SDS011;63545;51.690;5.202;2024-02-28T05:49:25;32.47;;;19.87;;
74995;SDS011;63545;51.690;5.202;2024-02-28T05:51:50;33.55;;;17.65;;
74995;SDS011;63545;51.690;5.202;2024-02-28T05:54:16;31.67;;;19.17;;
74995;SDS011;63545;51.690;5.202;2024-02-28T05:56:41;33.90;;;19.83;;
74995;SDS011;63545;51.690;5.202;2024-02-28T05:59:07;35.27;;;19.87;;
74995;SDS011;63545;51.690;5.202;2024-02-28T06:01:32;35.13;;;21.20;;
74995;SDS011;63545;51.690;5.202;2024-02-28T06:03:57;33.13;;;19.67;;
74995;SDS011;63545;51.690;5.202;2024-02-28T06:06:23;39.05;;;20.48;;
74995;SDS011;63545;51.690;5.202;2024-02-28T06:08:48;37.00;;;19.93;;
74995;SDS011;63545;51.690;5.202;2024-02-28T06:11:14;33.80;;;19.33;;
74995;SDS011;63545;51.690;5.202;2024-02-28T06:13:42;38.30;;;21.13;;
74995;SDS011;63545;51.690;5.202;2024-02-28T06:16:07;37.72;;;20.17;;
74995;SDS011;63545;51.690;5.202;2024-02-28T06:18:33;37.92;;;21.23;;
74995;SDS011;63545;51.690;5.202;2024-02-28T06:20:58;34.70;;;20.00;;
74995;SDS011;63545;51.690;5.202;2024-02-28T06:23:25;38.47;;;21.10;;
74995;SDS011;63545;51.690;5.202;2024-02-28T06:25:50;38.50;;;21.83;;
74995;SDS011;63545;51.690;5.202;2024-02-28T06:28:16;39.95;;;21.90;;
74995;SDS011;63545;51.690;5.202;2024-02-28T06:30:42;36.40;;;21.07;;
74995;SDS011;63545;51.690;5.202;2024-02-28T06:33:11;46.65;;;21.55;;
74995;SDS011;63545;51.690;5.202;2024-02-28T06:35:36;43.20;;;22.03;;
74995;SDS011;63545;51.690;5.202;2024-02-28T06:38:01;39.67;;;21.90;;
74995;SDS011;63545;51.690;5.202;2024-02-28T06:40:27;40.40;;;22.90;;
74995;SDS011;63545;51.690;5.202;2024-02-28T06:42:53;43.08;;;22.65;;
74995;SDS011;63545;51.690;5.202;2024-02-28T06:45:19;38.97;;;22.53;;
74995;SDS011;63545;51.690;5.202;2024-02-28T06:47:44;40.00;;;21.43;;
74995;SDS011;63545;51.690;5.202;2024-02-28T06:50:10;38.95;;;21.48;;
74995;SDS011;63545;51.690;5.202;2024-02-28T06:52:35;47.20;;;22.50;;
74995;SDS011;63545;51.690;5.202;2024-02-28T06:55:01;49.72;;;23.38;;
74995;SDS011;63545;51.690;5.202;2024-02-28T06:57:31;42.53;;;23.63;;
74995;SDS011;63545;51.690;5.202;2024-02-28T06:59:56;42.33;;;21.88;;
74995;SDS011;63545;51.690;5.202;2024-02-28T07:02:21;46.03;;;23.57;;
74995;SDS011;63545;51.690;5.202;2024-02-28T07:04:47;41.30;;;22.83;;
74995;SDS011;63545;51.690;5.202;2024-02-28T07:07:12;43.50;;;23.07;;
74995;SDS011;63545;51.690;5.202;2024-02-28T07:09:37;45.60;;;22.60;;
74995;SDS011;63545;51.690;5.202;2024-02-28T07:12:03;44.17;;;23.53;;
74995;SDS011;63545;51.690;5.202;2024-02-28T07:14:28;44.00;;;23.25;;
74995;SDS011;63545;51.690;5.202;2024-02-28T07:16:54;40.67;;;23.87;;
74995;SDS011;63545;51.690;5.202;2024-02-28T07:19:20;43.40;;;22.48;;
74995;SDS011;63545;51.690;5.202;2024-02-28T07:21:46;45.57;;;24.13;;
74995;SDS011;63545;51.690;5.202;2024-02-28T07:24:11;42.27;;;22.27;;
74995;SDS011;63545;51.690;5.202;2024-02-28T07:26:36;41.88;;;22.98;;
74995;SDS011;63545;51.690;5.202;2024-02-28T07:29:02;43.57;;;24.00;;
74995;SDS011;63545;51.690;5.202;2024-02-28T07:31:28;40.35;;;22.77;;
74995;SDS011;63545;51.690;5.202;2024-02-28T07:33:53;43.30;;;22.47;;
74995;SDS011;63545;51.690;5.202;2024-02-28T07:36:19;44.30;;;22.60;;
74995;SDS011;63545;51.690;5.202;2024-02-28T07:38:45;38.72;;;21.15;;
74995;SDS011;63545;51.690;5.202;2024-02-28T07:41:10;42.63;;;21.90;;
74995;SDS011;63545;51.690;5.202;2024-02-28T07:43:35;37.83;;;20.93;;
74995;SDS011;63545;51.690;5.202;2024-02-28T07:46:07;39.00;;;21.88;;
74995;SDS011;63545;51.690;5.202;2024-02-28T07:48:33;40.22;;;22.23;;
74995;SDS011;63545;51.690;5.202;2024-02-28T07:50:58;43.47;;;21.98;;
74995;SDS011;63545;51.690;5.202;2024-02-28T07:53:24;39.47;;;22.10;;
74995;SDS011;63545;51.690;5.202;2024-02-28T07:55:50;42.13;;;22.23;;
74995;SDS011;63545;51.690;5.202;2024-02-28T07:58:15;43.22;;;20.45;;
74995;SDS011;63545;51.690;5.202;2024-02-28T08:00:41;43.45;;;21.45;;
74995;SDS011;63545;51.690;5.202;2024-02-28T08:03:08;44.90;;;22.00;;
74995;SDS011;63545;51.690;5.202;2024-02-28T08:05:34;37.78;;;21.85;;
74995;SDS011;63545;51.690;5.202;2024-02-28T08:08:04;42.67;;;21.63;;
74995;SDS011;63545;51.690;5.202;2024-02-28T08:10:30;36.47;;;20.17;;
74995;SDS011;63545;51.690;5.202;2024-02-28T08:12:55;41.30;;;21.00;;
74995;SDS011;63545;51.690;5.202;2024-02-28T08:15:21;40.13;;;21.73;;
74995;SDS011;63545;51.690;5.202;2024-02-28T08:17:46;42.70;;;20.83;;
74995;SDS011;63545;51.690;5.202;2024-02-28T08:20:11;37.70;;;20.37;;
74995;SDS011;63545;51.690;5.202;2024-02-28T08:22:37;37.63;;;20.53;;
74995;SDS011;63545;51.690;5.202;2024-02-28T08:25:02;43.90;;;21.47;;
74995;SDS011;63545;51.690;5.202;2024-02-28T08:27:28;41.28;;;20.60;;
74995;SDS011;63545;51.690;5.202;2024-02-28T08:29:53;39.53;;;20.47;;
74995;SDS011;63545;51.690;5.202;2024-02-28T08:32:19;38.80;;;20.73;;
74995;SDS011;63545;51.690;5.202;2024-02-28T08:34:45;34.80;;;19.10;;
74995;SDS011;63545;51.690;5.202;2024-02-28T08:37:14;40.90;;;20.95;;
74995;SDS011;63545;51.690;5.202;2024-02-28T08:39:39;34.17;;;19.53;;
74995;SDS011;63545;51.690;5.202;2024-02-28T08:42:05;40.37;;;20.30;;
74995;SDS011;63545;51.690;5.202;2024-02-28T08:44:30;36.58;;;20.55;;
74995;SDS011;63545;51.690;5.202;2024-02-28T08:46:56;38.00;;;20.67;;
74995;SDS011;63545;51.690;5.202;2024-02-28T08:49:21;41.30;;;20.87;;
74995;SDS011;63545;51.690;5.202;2024-02-28T08:51:47;35.75;;;20.15;;
74995;SDS011;63545;51.690;5.202;2024-02-28T08:54:12;37.73;;;18.90;;
74995;SDS011;63545;51.690;5.202;2024-02-28T08:56:37;38.20;;;20.33;;
74995;SDS011;63545;51.690;5.202;2024-02-28T08:59:03;38.43;;;19.90;;
74995;SDS011;63545;51.690;5.202;2024-02-28T09:01:28;41.23;;;19.60;;
74995;SDS011;63545;51.690;5.202;2024-02-28T09:03:53;37.07;;;20.23;;
74995;SDS011;63545;51.690;5.202;2024-02-28T09:06:19;41.93;;;20.40;;
74995;SDS011;63545;51.690;5.202;2024-02-28T09:08:44;40.00;;;19.23;;
74995;SDS011;63545;51.690;5.202;2024-02-28T09:11:09;38.60;;;19.93;;
74995;SDS011;63545;51.690;5.202;2024-02-28T09:13:35;38.43;;;19.60;;
74995;SDS011;63545;51.690;5.202;2024-02-28T09:16:01;37.17;;;19.07;;
74995;SDS011;63545;51.690;5.202;2024-02-28T09:18:26;38.28;;;20.08;;
74995;SDS011;63545;51.690;5.202;2024-02-28T09:20:52;41.83;;;20.37;;
74995;SDS011;63545;51.690;5.202;2024-02-28T09:23:17;45.30;;;20.27;;
74995;SDS011;63545;51.690;5.202;2024-02-28T09:25:43;40.47;;;19.30;;
74995;SDS011;63545;51.690;5.202;2024-02-28T09:28:08;35.07;;;19.37;;
74995;SDS011;63545;51.690;5.202;2024-02-28T09:30:35;39.90;;;20.63;;
74995;SDS011;63545;51.690;5.202;2024-02-28T09:33:01;38.57;;;20.30;;
74995;SDS011;63545;51.690;5.202;2024-02-28T09:35:26;40.70;;;20.53;;
74995;SDS011;63545;51.690;5.202;2024-02-28T09:37:51;38.30;;;20.13;;
74995;SDS011;63545;51.690;5.202;2024-02-28T09:40:17;40.40;;;20.50;;
74995;SDS011;63545;51.690;5.202;2024-02-28T09:42:46;41.78;;;19.20;;
74995;SDS011;63545;51.690;5.202;2024-02-28T09:45:13;39.67;;;18.52;;
74995;SDS011;63545;51.690;5.202;2024-02-28T09:47:40;34.42;;;19.48;;
74995;SDS011;63545;51.690;5.202;2024-02-28T09:50:06;36.70;;;19.13;;
74995;SDS011;63545;51.690;5.202;2024-02-28T09:52:32;40.50;;;19.73;;
74995;SDS011;63545;51.690;5.202;2024-02-28T09:54:57;38.20;;;18.97;;
74995;SDS011;63545;51.690;5.202;2024-02-28T09:57:23;38.57;;;18.37;;
74995;SDS011;63545;51.690;5.202;2024-02-28T09:59:53;35.30;;;18.10;;
74995;SDS011;63545;51.690;5.202;2024-02-28T10:02:20;32.10;;;17.77;;
74995;SDS011;63545;51.690;5.202;2024-02-28T10:04:46;36.93;;;18.50;;
74995;SDS011;63545;51.690;5.202;2024-02-28T10:07:12;35.20;;;17.97;;
74995;SDS011;63545;51.690;5.202;2024-02-28T10:09:38;32.60;;;17.35;;
74995;SDS011;63545;51.690;5.202;2024-02-28T10:12:04;35.65;;;18.17;;
74995;SDS011;63545;51.690;5.202;2024-02-28T10:14:29;36.30;;;18.07;;
74995;SDS011;63545;51.690;5.202;2024-02-28T10:16:55;37.72;;;18.33;;
74995;SDS011;63545;51.690;5.202;2024-02-28T10:19:20;39.30;;;18.53;;
74995;SDS011;63545;51.690;5.202;2024-02-28T10:21:46;36.07;;;18.00;;
74995;SDS011;63545;51.690;5.202;2024-02-28T10:24:12;36.80;;;18.50;;
74995;SDS011;63545;51.690;5.202;2024-02-28T10:26:44;38.60;;;18.07;;
74995;SDS011;63545;51.690;5.202;2024-02-28T10:29:10;39.60;;;19.10;;
74995;SDS011;63545;51.690;5.202;2024-02-28T10:31:35;38.55;;;18.77;;
74995;SDS011;63545;51.690;5.202;2024-02-28T10:34:01;35.33;;;18.47;;
74995;SDS011;63545;51.690;5.202;2024-02-28T10:36:27;35.78;;;18.58;;
74995;SDS011;63545;51.690;5.202;2024-02-28T10:38:55;34.78;;;18.13;;
74995;SDS011;63545;51.690;5.202;2024-02-28T10:41:21;37.10;;;18.70;;
74995;SDS011;63545;51.690;5.202;2024-02-28T10:43:46;36.28;;;18.70;;
74995;SDS011;63545;51.690;5.202;2024-02-28T10:46:13;33.90;;;18.33;;
74995;SDS011;63545;51.690;5.202;2024-02-28T10:48:39;36.17;;;19.98;;
74995;SDS011;63545;51.690;5.202;2024-02-28T10:51:04;37.10;;;19.87;;
74995;SDS011;63545;51.690;5.202;2024-02-28T10:53:36;38.28;;;19.33;;
74995;SDS011;63545;51.690;5.202;2024-02-28T10:56:03;38.60;;;19.30;;
74995;SDS011;63545;51.690;5.202;2024-02-28T10:58:33;36.13;;;17.75;;
74995;SDS011;63545;51.690;5.202;2024-02-28T11:01:03;42.08;;;20.25;;
74995;SDS011;63545;51.690;5.202;2024-02-28T11:03:29;38.85;;;22.13;;
74995;SDS011;63545;51.690;5.202;2024-02-28T11:05:55;37.87;;;20.30;;
74995;SDS011;63545;51.690;5.202;2024-02-28T11:08:21;38.22;;;20.45;;
74995;SDS011;63545;51.690;5.202;2024-02-28T11:10:47;36.27;;;19.37;;
74995;SDS011;63545;51.690;5.202;2024-02-28T11:13:25;40.97;;;20.08;;
74995;SDS011;63545;51.690;5.202;2024-02-28T11:15:52;38.15;;;20.73;;
74995;SDS011;63545;51.690;5.202;2024-02-28T11:18:18;37.37;;;19.30;;
74995;SDS011;63545;51.690;5.202;2024-02-28T11:20:43;37.63;;;18.87;;
74995;SDS011;63545;51.690;5.202;2024-02-28T11:23:11;41.08;;;19.90;;
74995;SDS011;63545;51.690;5.202;2024-02-28T11:25:36;39.37;;;19.20;;
74995;SDS011;63545;51.690;5.202;2024-02-28T11:28:02;36.90;;;19.40;;
74995;SDS011;63545;51.690;5.202;2024-02-28T11:30:27;38.57;;;20.50;;
74995;SDS011;63545;51.690;5.202;2024-02-28T11:32:53;36.57;;;19.87;;
74995;SDS011;63545;51.690;5.202;2024-02-28T11:35:19;36.53;;;19.50;;
74995;SDS011;63545;51.690;5.202;2024-02-28T11:37:45;41.67;;;20.63;;
74995;SDS011;63545;51.690;5.202;2024-02-28T11:40:12;37.42;;;19.88;;
74995;SDS011;63545;51.690;5.202;2024-02-28T11:42:38;46.07;;;20.77;;
74995;SDS011;63545;51.690;5.202;2024-02-28T11:45:04;43.88;;;21.48;;
74995;SDS011;63545;51.690;5.202;2024-02-28T11:47:31;39.28;;;21.27;;
74995;SDS011;63545;51.690;5.202;2024-02-28T11:50:03;40.33;;;21.23;;
74995;SDS011;63545;51.690;5.202;2024-02-28T11:52:32;40.55;;;20.85;;
74995;SDS011;63545;51.690;5.202;2024-02-28T11:54:58;45.13;;;21.60;;
74995;SDS011;63545;51.690;5.202;2024-02-28T11:57:24;41.03;;;20.60;;
74995;SDS011;63545;51.690;5.202;2024-02-28T11:59:51;41.22;;;21.92;;
74995;SDS011;63545;51.690;5.202;2024-02-28T12:02:17;37.43;;;20.93;;
74995;SDS011;63545;51.690;5.202;2024-02-28T12:04:42;38.63;;;20.67;;
74995;SDS011;63545;51.690;5.202;2024-02-28T12:07:08;39.33;;;20.88;;
74995;SDS011;63545;51.690;5.202;2024-02-28T12:09:34;33.63;;;19.47;;
74995;SDS011;63545;51.690;5.202;2024-02-28T12:12:00;41.53;;;20.73;;
74995;SDS011;63545;51.690;5.202;2024-02-28T12:14:26;34.10;;;20.20;;
74995;SDS011;63545;51.690;5.202;2024-02-28T12:16:52;37.77;;;20.33;;
74995;SDS011;63545;51.690;5.202;2024-02-28T12:19:17;32.58;;;17.55;;
74995;SDS011;63545;51.690;5.202;2024-02-28T12:21:45;32.03;;;18.53;;
74995;SDS011;63545;51.690;5.202;2024-02-28T12:24:10;33.80;;;18.70;;
74995;SDS011;63545;51.690;5.202;2024-02-28T12:26:36;31.33;;;18.57;;
74995;SDS011;63545;51.690;5.202;2024-02-28T12:29:05;27.23;;;16.00;;
74995;SDS011;63545;51.690;5.202;2024-02-28T12:31:30;29.30;;;16.20;;
74995;SDS011;63545;51.690;5.202;2024-02-28T12:33:55;29.87;;;16.70;;
74995;SDS011;63545;51.690;5.202;2024-02-28T12:36:21;29.60;;;16.73;;
74995;SDS011;63545;51.690;5.202;2024-02-28T12:38:46;32.03;;;17.87;;
74995;SDS011;63545;51.690;5.202;2024-02-28T12:41:12;26.03;;;16.90;;
74995;SDS011;63545;51.690;5.202;2024-02-28T12:43:38;28.73;;;17.43;;
74995;SDS011;63545;51.690;5.202;2024-02-28T12:46:04;27.55;;;16.00;;
74995;SDS011;63545;51.690;5.202;2024-02-28T12:48:29;30.40;;;16.80;;
74995;SDS011;63545;51.690;5.202;2024-02-28T12:50:56;29.27;;;15.20;;
74995;SDS011;63545;51.690;5.202;2024-02-28T12:53:21;26.90;;;15.63;;
74995;SDS011;63545;51.690;5.202;2024-02-28T12:55:46;26.60;;;15.53;;
74995;SDS011;63545;51.690;5.202;2024-02-28T12:58:12;26.93;;;15.10;;
74995;SDS011;63545;51.690;5.202;2024-02-28T13:00:37;26.13;;;13.70;;
74995;SDS011;63545;51.690;5.202;2024-02-28T13:03:03;21.88;;;13.38;;
74995;SDS011;63545;51.690;5.202;2024-02-28T13:05:29;30.90;;;15.33;;
74995;SDS011;63545;51.690;5.202;2024-02-28T13:07:55;26.92;;;14.63;;
74995;SDS011;63545;51.690;5.202;2024-02-28T13:10:20;25.73;;;14.43;;
74995;SDS011;63545;51.690;5.202;2024-02-28T13:12:47;27.92;;;14.45;;
74995;SDS011;63545;51.690;5.202;2024-02-28T13:15:12;22.60;;;13.03;;
74995;SDS011;63545;51.690;5.202;2024-02-28T13:17:38;25.38;;;14.13;;
74995;SDS011;63545;51.690;5.202;2024-02-28T13:20:03;26.57;;;15.13;;
74995;SDS011;63545;51.690;5.202;2024-02-28T13:22:29;25.47;;;14.33;;
74995;SDS011;63545;51.690;5.202;2024-02-28T13:24:57;25.13;;;14.07;;
74995;SDS011;63545;51.690;5.202;2024-02-28T13:27:22;25.10;;;14.93;;
74995;SDS011;63545;51.690;5.202;2024-02-28T13:29:47;26.33;;;14.75;;
74995;SDS011;63545;51.690;5.202;2024-02-28T13:32:13;25.67;;;15.13;;
74995;SDS011;63545;51.690;5.202;2024-02-28T13:34:39;30.43;;;14.73;;
74995;SDS011;63545;51.690;5.202;2024-02-28T13:37:04;28.50;;;14.88;;
74995;SDS011;63545;51.690;5.202;2024-02-28T13:39:30;31.07;;;15.10;;
74995;SDS011;63545;51.690;5.202;2024-02-28T13:41:55;26.80;;;14.47;;
74995;SDS011;63545;51.690;5.202;2024-02-28T13:44:20;28.23;;;14.63;;
74995;SDS011;63545;51.690;5.202;2024-02-28T13:46:46;28.10;;;15.17;;
74995;SDS011;63545;51.690;5.202;2024-02-28T13:49:12;29.87;;;15.10;;
74995;SDS011;63545;51.690;5.202;2024-02-28T13:51:38;32.45;;;16.00;;
74995;SDS011;63545;51.690;5.202;2024-02-28T13:54:04;30.07;;;15.03;;
74995;SDS011;63545;51.690;5.202;2024-02-28T13:56:29;32.30;;;13.98;;
74995;SDS011;63545;51.690;5.202;2024-02-28T13:58:56;29.87;;;13.93;;
74995;SDS011;63545;51.690;5.202;2024-02-28T14:01:21;26.60;;;14.27;;
74995;SDS011;63545;51.690;5.202;2024-02-28T14:03:46;25.90;;;13.37;;
74995;SDS011;63545;51.690;5.202;2024-02-28T14:06:12;26.70;;;13.37;;
74995;SDS011;63545;51.690;5.202;2024-02-28T14:08:38;25.67;;;14.80;;
74995;SDS011;63545;51.690;5.202;2024-02-28T14:11:04;26.47;;;14.23;;
74995;SDS011;63545;51.690;5.202;2024-02-28T14:13:29;26.77;;;13.67;;